Lahaina, Hawaii
Current Conditions -  °F | °C
As of 8:54 AM on Thursday 30 Oct 2014 (Local Time) from PHOG Reporting Station
Few Clouds Few Clouds  
Wind Chill: 81°   Ceiling: Unl
Heat Index: 83°   Visibility: 10mi
Dew Point: 65°   Wind: 13mph
Humidity: 58%   Direction: 60°ENE
Pressure: 30.1"   Gusts: 21mph
Location:  20.88°N, 156.67°W
Report Text: PHOG 301854Z 06011G18KT 10SM FEW050 27/18 A3010 RMK AO2 SLP196 T02720183
Loading
Personal Weather Stations






























Interactive Weather Map
Tropical Storm Tracking
New forecast layout! Learn more

10-Day Weather Forecast

Advertisements
Track Severe Weather on mobile